sensor_id;sensor_type;location;lat;lon;timestamp;P1;durP1;ratioP1;P2;durP2;ratioP2
5167;SDS011;2603;48.918;8.980;2023-12-07T00:01:45;16.50;;;9.03;;
5167;SDS011;2603;48.918;8.980;2023-12-07T00:04:12;18.40;;;10.60;;
5167;SDS011;2603;48.918;8.980;2023-12-07T00:06:39;17.47;;;8.43;;
5167;SDS011;2603;48.918;8.980;2023-12-07T00:09:06;12.37;;;7.60;;
5167;SDS011;2603;48.918;8.980;2023-12-07T00:11:33;12.80;;;8.00;;
5167;SDS011;2603;48.918;8.980;2023-12-07T00:14:00;13.90;;;7.37;;
5167;SDS011;2603;48.918;8.980;2023-12-07T00:16:28;16.50;;;8.23;;
5167;SDS011;2603;48.918;8.980;2023-12-07T00:18:55;18.67;;;9.80;;
5167;SDS011;2603;48.918;8.980;2023-12-07T00:21:21;13.70;;;9.10;;
5167;SDS011;2603;48.918;8.980;2023-12-07T00:23:48;16.10;;;9.00;;
5167;SDS011;2603;48.918;8.980;2023-12-07T00:26:16;15.63;;;8.60;;
5167;SDS011;2603;48.918;8.980;2023-12-07T00:28:43;20.03;;;10.43;;
5167;SDS011;2603;48.918;8.980;2023-12-07T00:31:10;19.40;;;9.00;;
5167;SDS011;2603;48.918;8.980;2023-12-07T00:33:36;14.73;;;7.67;;
5167;SDS011;2603;48.918;8.980;2023-12-07T00:36:04;15.90;;;9.57;;
5167;SDS011;2603;48.918;8.980;2023-12-07T00:38:31;16.20;;;8.63;;
5167;SDS011;2603;48.918;8.980;2023-12-07T00:40:57;21.13;;;8.40;;
5167;SDS011;2603;48.918;8.980;2023-12-07T00:43:33;17.77;;;9.70;;
5167;SDS011;2603;48.918;8.980;2023-12-07T00:45:59;14.83;;;8.10;;
5167;SDS011;2603;48.918;8.980;2023-12-07T00:48:27;16.83;;;8.50;;
5167;SDS011;2603;48.918;8.980;2023-12-07T00:50:54;14.53;;;7.47;;
5167;SDS011;2603;48.918;8.980;2023-12-07T00:53:20;16.63;;;8.50;;
5167;SDS011;2603;48.918;8.980;2023-12-07T00:55:47;13.80;;;8.17;;
5167;SDS011;2603;48.918;8.980;2023-12-07T00:58:15;16.67;;;8.93;;
5167;SDS011;2603;48.918;8.980;2023-12-07T01:00:43;20.90;;;11.50;;
5167;SDS011;2603;48.918;8.980;2023-12-07T01:03:11;19.67;;;10.33;;
5167;SDS011;2603;48.918;8.980;2023-12-07T01:05:37;19.63;;;11.07;;
5167;SDS011;2603;48.918;8.980;2023-12-07T01:08:04;19.17;;;11.47;;
5167;SDS011;2603;48.918;8.980;2023-12-07T01:10:31;21.83;;;12.90;;
5167;SDS011;2603;48.918;8.980;2023-12-07T01:12:57;20.70;;;11.60;;
5167;SDS011;2603;48.918;8.980;2023-12-07T01:15:26;17.90;;;11.70;;
5167;SDS011;2603;48.918;8.980;2023-12-07T01:17:55;25.27;;;11.60;;
5167;SDS011;2603;48.918;8.980;2023-12-07T01:20:21;21.33;;;11.20;;
5167;SDS011;2603;48.918;8.980;2023-12-07T01:22:49;20.30;;;11.43;;
5167;SDS011;2603;48.918;8.980;2023-12-07T01:25:15;28.30;;;12.43;;
5167;SDS011;2603;48.918;8.980;2023-12-07T01:27:46;19.70;;;11.03;;
5167;SDS011;2603;48.918;8.980;2023-12-07T01:30:13;22.03;;;11.80;;
5167;SDS011;2603;48.918;8.980;2023-12-07T01:32:43;17.40;;;9.60;;
5167;SDS011;2603;48.918;8.980;2023-12-07T01:35:11;19.20;;;10.30;;
5167;SDS011;2603;48.918;8.980;2023-12-07T01:37:38;15.10;;;10.20;;
5167;SDS011;2603;48.918;8.980;2023-12-07T01:40:05;21.40;;;10.73;;
5167;SDS011;2603;48.918;8.980;2023-12-07T01:42:36;19.07;;;10.43;;
5167;SDS011;2603;48.918;8.980;2023-12-07T01:45:03;14.93;;;9.50;;
5167;SDS011;2603;48.918;8.980;2023-12-07T01:47:32;20.60;;;11.27;;
5167;SDS011;2603;48.918;8.980;2023-12-07T01:49:59;17.93;;;10.00;;
5167;SDS011;2603;48.918;8.980;2023-12-07T01:52:31;18.70;;;11.07;;
5167;SDS011;2603;48.918;8.980;2023-12-07T01:54:57;23.50;;;12.40;;
5167;SDS011;2603;48.918;8.980;2023-12-07T01:57:26;23.23;;;11.20;;
5167;SDS011;2603;48.918;8.980;2023-12-07T01:59:53;21.20;;;10.77;;
5167;SDS011;2603;48.918;8.980;2023-12-07T02:02:20;28.67;;;12.17;;
5167;SDS011;2603;48.918;8.980;2023-12-07T02:04:47;23.73;;;12.40;;
5167;SDS011;2603;48.918;8.980;2023-12-07T02:07:13;20.60;;;11.63;;
5167;SDS011;2603;48.918;8.980;2023-12-07T02:09:41;18.67;;;10.10;;
5167;SDS011;2603;48.918;8.980;2023-12-07T02:12:08;18.10;;;11.03;;
5167;SDS011;2603;48.918;8.980;2023-12-07T02:14:35;19.97;;;11.40;;
5167;SDS011;2603;48.918;8.980;2023-12-07T02:17:05;12.77;;;8.27;;
5167;SDS011;2603;48.918;8.980;2023-12-07T02:19:43;19.23;;;10.17;;
5167;SDS011;2603;48.918;8.980;2023-12-07T02:22:17;17.07;;;8.87;;
5167;SDS011;2603;48.918;8.980;2023-12-07T02:24:53;15.30;;;8.73;;
5167;SDS011;2603;48.918;8.980;2023-12-07T02:30:13;15.70;;;9.73;;
5167;SDS011;2603;48.918;8.980;2023-12-07T02:32:41;17.13;;;10.40;;
5167;SDS011;2603;48.918;8.980;2023-12-07T02:35:08;19.03;;;10.40;;
5167;SDS011;2603;48.918;8.980;2023-12-07T02:37:38;19.10;;;9.90;;
5167;SDS011;2603;48.918;8.980;2023-12-07T02:40:08;15.23;;;7.83;;
5167;SDS011;2603;48.918;8.980;2023-12-07T02:42:36;19.20;;;9.10;;
5167;SDS011;2603;48.918;8.980;2023-12-07T02:45:05;17.77;;;9.60;;
5167;SDS011;2603;48.918;8.980;2023-12-07T02:47:32;17.07;;;9.87;;
5167;SDS011;2603;48.918;8.980;2023-12-07T02:50:00;18.53;;;10.53;;
5167;SDS011;2603;48.918;8.980;2023-12-07T02:52:28;20.20;;;10.07;;
5167;SDS011;2603;48.918;8.980;2023-12-07T02:54:55;20.73;;;9.83;;
5167;SDS011;2603;48.918;8.980;2023-12-07T02:57:23;20.20;;;11.30;;
5167;SDS011;2603;48.918;8.980;2023-12-07T02:59:49;20.33;;;11.37;;
5167;SDS011;2603;48.918;8.980;2023-12-07T03:02:18;19.53;;;10.80;;
5167;SDS011;2603;48.918;8.980;2023-12-07T03:04:45;27.10;;;15.87;;
5167;SDS011;2603;48.918;8.980;2023-12-07T03:07:12;24.10;;;16.47;;
5167;SDS011;2603;48.918;8.980;2023-12-07T03:09:39;21.20;;;13.33;;
5167;SDS011;2603;48.918;8.980;2023-12-07T03:12:06;24.43;;;15.27;;
5167;SDS011;2603;48.918;8.980;2023-12-07T03:14:33;23.53;;;14.20;;
5167;SDS011;2603;48.918;8.980;2023-12-07T03:16:59;21.80;;;13.97;;
5167;SDS011;2603;48.918;8.980;2023-12-07T03:19:27;22.23;;;12.40;;
5167;SDS011;2603;48.918;8.980;2023-12-07T03:21:54;21.87;;;13.40;;
5167;SDS011;2603;48.918;8.980;2023-12-07T03:24:21;21.73;;;11.20;;
5167;SDS011;2603;48.918;8.980;2023-12-07T03:26:47;17.90;;;11.23;;
5167;SDS011;2603;48.918;8.980;2023-12-07T03:29:14;34.10;;;17.33;;
5167;SDS011;2603;48.918;8.980;2023-12-07T03:31:41;32.13;;;17.20;;
5167;SDS011;2603;48.918;8.980;2023-12-07T03:34:07;25.67;;;13.83;;
5167;SDS011;2603;48.918;8.980;2023-12-07T03:36:35;19.57;;;12.70;;
5167;SDS011;2603;48.918;8.980;2023-12-07T03:39:02;23.50;;;13.90;;
5167;SDS011;2603;48.918;8.980;2023-12-07T03:41:30;19.80;;;11.57;;
5167;SDS011;2603;48.918;8.980;2023-12-07T03:43:56;17.17;;;10.40;;
5167;SDS011;2603;48.918;8.980;2023-12-07T03:46:23;19.80;;;11.10;;
5167;SDS011;2603;48.918;8.980;2023-12-07T03:48:49;20.67;;;11.00;;
5167;SDS011;2603;48.918;8.980;2023-12-07T03:51:16;24.83;;;10.80;;
5167;SDS011;2603;48.918;8.980;2023-12-07T03:53:44;21.57;;;11.30;;
5167;SDS011;2603;48.918;8.980;2023-12-07T03:56:11;19.53;;;11.30;;
5167;SDS011;2603;48.918;8.980;2023-12-07T03:58:49;18.37;;;10.77;;
5167;SDS011;2603;48.918;8.980;2023-12-07T04:01:16;20.30;;;11.57;;
5167;SDS011;2603;48.918;8.980;2023-12-07T04:03:43;19.73;;;9.57;;
5167;SDS011;2603;48.918;8.980;2023-12-07T04:06:11;18.90;;;10.73;;
5167;SDS011;2603;48.918;8.980;2023-12-07T04:08:38;22.17;;;12.07;;
5167;SDS011;2603;48.918;8.980;2023-12-07T04:11:06;20.27;;;12.70;;
5167;SDS011;2603;48.918;8.980;2023-12-07T04:13:33;25.20;;;11.30;;
5167;SDS011;2603;48.918;8.980;2023-12-07T04:16:00;18.97;;;11.73;;
5167;SDS011;2603;48.918;8.980;2023-12-07T04:18:28;20.13;;;12.23;;
5167;SDS011;2603;48.918;8.980;2023-12-07T04:20:55;28.87;;;12.30;;
5167;SDS011;2603;48.918;8.980;2023-12-07T04:23:21;18.60;;;10.03;;
5167;SDS011;2603;48.918;8.980;2023-12-07T04:25:48;23.17;;;10.97;;
5167;SDS011;2603;48.918;8.980;2023-12-07T04:28:16;16.97;;;9.10;;
5167;SDS011;2603;48.918;8.980;2023-12-07T04:30:43;17.27;;;10.20;;
5167;SDS011;2603;48.918;8.980;2023-12-07T04:33:09;17.60;;;9.87;;
5167;SDS011;2603;48.918;8.980;2023-12-07T04:35:37;19.87;;;9.80;;
5167;SDS011;2603;48.918;8.980;2023-12-07T04:38:04;17.47;;;9.87;;
5167;SDS011;2603;48.918;8.980;2023-12-07T04:40:30;15.77;;;10.37;;
5167;SDS011;2603;48.918;8.980;2023-12-07T04:42:57;20.70;;;10.60;;
5167;SDS011;2603;48.918;8.980;2023-12-07T04:45:25;14.33;;;9.37;;
5167;SDS011;2603;48.918;8.980;2023-12-07T04:47:52;18.30;;;10.33;;
5167;SDS011;2603;48.918;8.980;2023-12-07T04:50:19;15.43;;;8.47;;
5167;SDS011;2603;48.918;8.980;2023-12-07T04:52:45;16.73;;;9.37;;
5167;SDS011;2603;48.918;8.980;2023-12-07T04:55:12;18.70;;;10.07;;
5167;SDS011;2603;48.918;8.980;2023-12-07T04:57:40;18.73;;;10.13;;
5167;SDS011;2603;48.918;8.980;2023-12-07T05:00:07;21.00;;;11.30;;
5167;SDS011;2603;48.918;8.980;2023-12-07T05:02:37;16.33;;;9.40;;
5167;SDS011;2603;48.918;8.980;2023-12-07T05:05:04;19.10;;;9.97;;
5167;SDS011;2603;48.918;8.980;2023-12-07T05:07:31;16.83;;;10.37;;
5167;SDS011;2603;48.918;8.980;2023-12-07T05:09:59;15.33;;;9.70;;
5167;SDS011;2603;48.918;8.980;2023-12-07T05:12:29;20.37;;;10.90;;
5167;SDS011;2603;48.918;8.980;2023-12-07T05:14:56;17.63;;;11.67;;
5167;SDS011;2603;48.918;8.980;2023-12-07T05:17:22;18.50;;;10.80;;
5167;SDS011;2603;48.918;8.980;2023-12-07T05:19:50;17.13;;;10.40;;
5167;SDS011;2603;48.918;8.980;2023-12-07T05:22:17;18.77;;;10.60;;
5167;SDS011;2603;48.918;8.980;2023-12-07T05:24:43;20.30;;;12.27;;
5167;SDS011;2603;48.918;8.980;2023-12-07T05:27:10;19.30;;;11.87;;
5167;SDS011;2603;48.918;8.980;2023-12-07T05:29:36;22.97;;;14.07;;
5167;SDS011;2603;48.918;8.980;2023-12-07T05:32:04;21.33;;;14.03;;
5167;SDS011;2603;48.918;8.980;2023-12-07T05:34:31;22.70;;;12.50;;
5167;SDS011;2603;48.918;8.980;2023-12-07T05:37:00;22.20;;;13.00;;
5167;SDS011;2603;48.918;8.980;2023-12-07T05:39:26;26.43;;;13.53;;
5167;SDS011;2603;48.918;8.980;2023-12-07T05:41:53;22.10;;;13.43;;
5167;SDS011;2603;48.918;8.980;2023-12-07T05:44:20;21.73;;;12.43;;
5167;SDS011;2603;48.918;8.980;2023-12-07T05:46:47;17.73;;;11.77;;
5167;SDS011;2603;48.918;8.980;2023-12-07T05:49:14;24.77;;;12.57;;
5167;SDS011;2603;48.918;8.980;2023-12-07T05:51:40;27.03;;;12.07;;
5167;SDS011;2603;48.918;8.980;2023-12-07T05:54:08;20.63;;;12.80;;
5167;SDS011;2603;48.918;8.980;2023-12-07T05:56:35;22.83;;;14.30;;
5167;SDS011;2603;48.918;8.980;2023-12-07T05:59:02;26.30;;;13.90;;
5167;SDS011;2603;48.918;8.980;2023-12-07T06:01:28;22.93;;;14.50;;
5167;SDS011;2603;48.918;8.980;2023-12-07T06:03:55;25.60;;;14.23;;
5167;SDS011;2603;48.918;8.980;2023-12-07T06:06:21;26.40;;;15.23;;
5167;SDS011;2603;48.918;8.980;2023-12-07T06:08:48;25.20;;;13.13;;
5167;SDS011;2603;48.918;8.980;2023-12-07T06:11:16;23.07;;;14.90;;
5167;SDS011;2603;48.918;8.980;2023-12-07T06:13:42;23.23;;;13.57;;
5167;SDS011;2603;48.918;8.980;2023-12-07T06:16:11;23.40;;;15.00;;
5167;SDS011;2603;48.918;8.980;2023-12-07T06:18:39;23.73;;;15.53;;
5167;SDS011;2603;48.918;8.980;2023-12-07T06:21:05;23.57;;;15.27;;
5167;SDS011;2603;48.918;8.980;2023-12-07T06:23:33;24.77;;;14.47;;
5167;SDS011;2603;48.918;8.980;2023-12-07T06:26:00;26.93;;;14.40;;
5167;SDS011;2603;48.918;8.980;2023-12-07T06:28:28;37.97;;;17.93;;
5167;SDS011;2603;48.918;8.980;2023-12-07T06:30:57;115.17;;;42.37;;
5167;SDS011;2603;48.918;8.980;2023-12-07T06:33:23;239.63;;;66.33;;
5167;SDS011;2603;48.918;8.980;2023-12-07T06:35:50;62.07;;;21.90;;
5167;SDS011;2603;48.918;8.980;2023-12-07T06:38:17;28.70;;;15.23;;
5167;SDS011;2603;48.918;8.980;2023-12-07T06:40:45;29.50;;;15.10;;
5167;SDS011;2603;48.918;8.980;2023-12-07T06:43:12;28.80;;;15.10;;
5167;SDS011;2603;48.918;8.980;2023-12-07T06:45:40;31.83;;;16.60;;
5167;SDS011;2603;48.918;8.980;2023-12-07T06:48:07;22.70;;;14.30;;
5167;SDS011;2603;48.918;8.980;2023-12-07T06:50:33;32.07;;;15.60;;
5167;SDS011;2603;48.918;8.980;2023-12-07T06:53:00;28.63;;;15.70;;
5167;SDS011;2603;48.918;8.980;2023-12-07T06:55:26;67.57;;;26.27;;
5167;SDS011;2603;48.918;8.980;2023-12-07T06:57:53;35.83;;;17.40;;
5167;SDS011;2603;48.918;8.980;2023-12-07T07:00:21;39.83;;;18.93;;
5167;SDS011;2603;48.918;8.980;2023-12-07T07:02:51;27.47;;;16.47;;
5167;SDS011;2603;48.918;8.980;2023-12-07T07:05:17;24.83;;;14.53;;
5167;SDS011;2603;48.918;8.980;2023-12-07T07:07:45;21.93;;;11.90;;
5167;SDS011;2603;48.918;8.980;2023-12-07T07:10:11;21.30;;;14.53;;
5167;SDS011;2603;48.918;8.980;2023-12-07T07:12:38;40.13;;;16.93;;
5167;SDS011;2603;48.918;8.980;2023-12-07T07:15:06;26.67;;;15.43;;
5167;SDS011;2603;48.918;8.980;2023-12-07T07:17:33;25.20;;;15.00;;
5167;SDS011;2603;48.918;8.980;2023-12-07T07:20:01;19.40;;;12.30;;
5167;SDS011;2603;48.918;8.980;2023-12-07T07:22:28;20.70;;;12.10;;
5167;SDS011;2603;48.918;8.980;2023-12-07T07:24:54;22.77;;;12.07;;
5167;SDS011;2603;48.918;8.980;2023-12-07T07:27:21;22.03;;;13.33;;
5167;SDS011;2603;48.918;8.980;2023-12-07T07:29:47;22.10;;;12.00;;
5167;SDS011;2603;48.918;8.980;2023-12-07T07:32:14;19.73;;;11.83;;
5167;SDS011;2603;48.918;8.980;2023-12-07T07:34:42;23.13;;;14.27;;
5167;SDS011;2603;48.918;8.980;2023-12-07T07:37:10;27.73;;;16.60;;
5167;SDS011;2603;48.918;8.980;2023-12-07T07:39:37;29.33;;;15.17;;
5167;SDS011;2603;48.918;8.980;2023-12-07T07:42:04;28.47;;;15.27;;
5167;SDS011;2603;48.918;8.980;2023-12-07T07:44:30;24.73;;;14.43;;
5167;SDS011;2603;48.918;8.980;2023-12-07T07:46:58;26.30;;;16.37;;
5167;SDS011;2603;48.918;8.980;2023-12-07T07:49:24;25.03;;;13.50;;
5167;SDS011;2603;48.918;8.980;2023-12-07T07:51:51;21.10;;;12.77;;
5167;SDS011;2603;48.918;8.980;2023-12-07T07:54:19;20.33;;;12.97;;
5167;SDS011;2603;48.918;8.980;2023-12-07T07:56:45;14.80;;;8.70;;
5167;SDS011;2603;48.918;8.980;2023-12-07T07:59:12;22.50;;;11.07;;
5167;SDS011;2603;48.918;8.980;2023-12-07T08:01:38;15.30;;;9.60;;
5167;SDS011;2603;48.918;8.980;2023-12-07T08:04:05;21.90;;;12.43;;
5167;SDS011;2603;48.918;8.980;2023-12-07T08:06:32;17.97;;;11.20;;
5167;SDS011;2603;48.918;8.980;2023-12-07T08:09:00;20.37;;;11.70;;
5167;SDS011;2603;48.918;8.980;2023-12-07T08:11:28;29.27;;;11.93;;
5167;SDS011;2603;48.918;8.980;2023-12-07T08:13:54;23.50;;;11.63;;
5167;SDS011;2603;48.918;8.980;2023-12-07T08:16:21;15.63;;;9.90;;
5167;SDS011;2603;48.918;8.980;2023-12-07T08:18:48;18.20;;;10.80;;
5167;SDS011;2603;48.918;8.980;2023-12-07T08:21:18;23.03;;;12.87;;
5167;SDS011;2603;48.918;8.980;2023-12-07T08:23:46;13.87;;;8.40;;
5167;SDS011;2603;48.918;8.980;2023-12-07T08:26:12;19.47;;;8.33;;
5167;SDS011;2603;48.918;8.980;2023-12-07T08:28:41;11.10;;;7.20;;
5167;SDS011;2603;48.918;8.980;2023-12-07T08:31:07;14.67;;;7.63;;
5167;SDS011;2603;48.918;8.980;2023-12-07T08:33:36;16.27;;;9.23;;
5167;SDS011;2603;48.918;8.980;2023-12-07T08:36:05;16.90;;;9.40;;
5167;SDS011;2603;48.918;8.980;2023-12-07T08:38:33;15.83;;;9.67;;
5167;SDS011;2603;48.918;8.980;2023-12-07T08:40:59;15.07;;;9.43;;
5167;SDS011;2603;48.918;8.980;2023-12-07T08:43:26;17.37;;;9.93;;
5167;SDS011;2603;48.918;8.980;2023-12-07T08:45:56;19.00;;;9.27;;
5167;SDS011;2603;48.918;8.980;2023-12-07T08:48:23;20.43;;;9.57;;
5167;SDS011;2603;48.918;8.980;2023-12-07T08:50:50;15.70;;;8.83;;
5167;SDS011;2603;48.918;8.980;2023-12-07T08:53:16;14.10;;;8.43;;
5167;SDS011;2603;48.918;8.980;2023-12-07T08:55:43;12.37;;;7.87;;
5167;SDS011;2603;48.918;8.980;2023-12-07T08:58:10;15.53;;;9.53;;
5167;SDS011;2603;48.918;8.980;2023-12-07T09:00:37;21.00;;;9.60;;
5167;SDS011;2603;48.918;8.980;2023-12-07T09:03:05;17.20;;;9.40;;
5167;SDS011;2603;48.918;8.980;2023-12-07T09:05:31;13.37;;;9.00;;
5167;SDS011;2603;48.918;8.980;2023-12-07T09:07:58;16.77;;;10.20;;
5167;SDS011;2603;48.918;8.980;2023-12-07T09:10:24;34.63;;;11.20;;
5167;SDS011;2603;48.918;8.980;2023-12-07T09:12:51;18.53;;;10.53;;
5167;SDS011;2603;48.918;8.980;2023-12-07T09:15:17;18.33;;;10.50;;
5167;SDS011;2603;48.918;8.980;2023-12-07T09:17:44;17.50;;;8.57;;
5167;SDS011;2603;48.918;8.980;2023-12-07T09:20:12;13.90;;;9.03;;
5167;SDS011;2603;48.918;8.980;2023-12-07T09:22:39;18.77;;;10.50;;
5167;SDS011;2603;48.918;8.980;2023-12-07T09:25:07;17.60;;;9.73;;
5167;SDS011;2603;48.918;8.980;2023-12-07T09:27:35;16.83;;;10.20;;
5167;SDS011;2603;48.918;8.980;2023-12-07T09:30:03;17.70;;;9.87;;
5167;SDS011;2603;48.918;8.980;2023-12-07T09:32:30;18.43;;;10.93;;
5167;SDS011;2603;48.918;8.980;2023-12-07T09:34:57;18.50;;;9.83;;
5167;SDS011;2603;48.918;8.980;2023-12-07T09:37:25;21.60;;;9.97;;
5167;SDS011;2603;48.918;8.980;2023-12-07T09:39:51;19.57;;;10.60;;
5167;SDS011;2603;48.918;8.980;2023-12-07T09:42:18;19.03;;;10.77;;
5167;SDS011;2603;48.918;8.980;2023-12-07T09:44:44;15.20;;;9.83;;
5167;SDS011;2603;48.918;8.980;2023-12-07T09:47:11;16.63;;;9.03;;
5167;SDS011;2603;48.918;8.980;2023-12-07T09:49:38;14.50;;;8.40;;
5167;SDS011;2603;48.918;8.980;2023-12-07T09:52:05;17.17;;;8.60;;
5167;SDS011;2603;48.918;8.980;2023-12-07T09:54:34;23.03;;;10.97;;
5167;SDS011;2603;48.918;8.980;2023-12-07T09:57:01;16.77;;;9.13;;
5167;SDS011;2603;48.918;8.980;2023-12-07T09:59:27;16.13;;;8.50;;
5167;SDS011;2603;48.918;8.980;2023-12-07T10:01:54;17.80;;;8.63;;
5167;SDS011;2603;48.918;8.980;2023-12-07T10:04:23;14.13;;;7.73;;
5167;SDS011;2603;48.918;8.980;2023-12-07T10:06:51;15.63;;;8.90;;
5167;SDS011;2603;48.918;8.980;2023-12-07T10:09:19;16.27;;;8.60;;
5167;SDS011;2603;48.918;8.980;2023-12-07T10:11:47;34.27;;;17.70;;
5167;SDS011;2603;48.918;8.980;2023-12-07T10:14:14;85.17;;;34.03;;
5167;SDS011;2603;48.918;8.980;2023-12-07T10:16:46;15.50;;;8.67;;
5167;SDS011;2603;48.918;8.980;2023-12-07T10:19:18;14.33;;;8.43;;
5167;SDS011;2603;48.918;8.980;2023-12-07T10:21:46;16.03;;;8.57;;
5167;SDS011;2603;48.918;8.980;2023-12-07T10:24:15;20.63;;;8.90;;
5167;SDS011;2603;48.918;8.980;2023-12-07T10:26:42;25.43;;;8.67;;
5167;SDS011;2603;48.918;8.980;2023-12-07T10:29:11;14.00;;;8.10;;
5167;SDS011;2603;48.918;8.980;2023-12-07T10:31:38;15.27;;;8.07;;
5167;SDS011;2603;48.918;8.980;2023-12-07T10:34:04;16.57;;;7.60;;
5167;SDS011;2603;48.918;8.980;2023-12-07T10:36:31;14.83;;;8.67;;
5167;SDS011;2603;48.918;8.980;2023-12-07T10:38:59;13.87;;;8.67;;
5167;SDS011;2603;48.918;8.980;2023-12-07T10:41:26;14.63;;;7.53;;
5167;SDS011;2603;48.918;8.980;2023-12-07T10:43:53;17.93;;;7.10;;
5167;SDS011;2603;48.918;8.980;2023-12-07T10:46:22;12.27;;;7.97;;
5167;SDS011;2603;48.918;8.980;2023-12-07T10:48:48;13.33;;;8.10;;
5167;SDS011;2603;48.918;8.980;2023-12-07T10:51:21;11.83;;;7.63;;
5167;SDS011;2603;48.918;8.980;2023-12-07T10:53:50;16.20;;;7.73;;
5167;SDS011;2603;48.918;8.980;2023-12-07T10:56:20;15.73;;;9.40;;
5167;SDS011;2603;48.918;8.980;2023-12-07T10:58:53;16.50;;;7.97;;
5167;SDS011;2603;48.918;8.980;2023-12-07T11:01:23;21.63;;;7.83;;
5167;SDS011;2603;48.918;8.980;2023-12-07T11:03:51;14.83;;;8.60;;
5167;SDS011;2603;48.918;8.980;2023-12-07T11:06:20;14.70;;;7.87;;
5167;SDS011;2603;48.918;8.980;2023-12-07T11:08:47;17.27;;;10.70;;
5167;SDS011;2603;48.918;8.980;2023-12-07T11:11:18;14.40;;;9.07;;
5167;SDS011;2603;48.918;8.980;2023-12-07T11:13:49;15.80;;;9.13;;
5167;SDS011;2603;48.918;8.980;2023-12-07T11:16:29;17.63;;;8.57;;
5167;SDS011;2603;48.918;8.980;2023-12-07T11:18:56;20.70;;;10.20;;
5167;SDS011;2603;48.918;8.980;2023-12-07T11:21:23;17.50;;;10.90;;
5167;SDS011;2603;48.918;8.980;2023-12-07T11:23:49;18.70;;;10.30;;
5167;SDS011;2603;48.918;8.980;2023-12-07T11:26:18;18.90;;;10.03;;
5167;SDS011;2603;48.918;8.980;2023-12-07T11:28:45;18.00;;;10.70;;
5167;SDS011;2603;48.918;8.980;2023-12-07T11:31:12;18.77;;;10.63;;
5167;SDS011;2603;48.918;8.980;2023-12-07T11:33:40;17.47;;;9.40;;
5167;SDS011;2603;48.918;8.980;2023-12-07T11:36:07;20.40;;;11.20;;
5167;SDS011;2603;48.918;8.980;2023-12-07T11:38:35;14.43;;;8.43;;
5167;SDS011;2603;48.918;8.980;2023-12-07T11:41:03;18.07;;;9.60;;
5167;SDS011;2603;48.918;8.980;2023-12-07T11:43:36;19.50;;;9.40;;
5167;SDS011;2603;48.918;8.980;2023-12-07T11:46:05;19.50;;;9.00;;
5167;SDS011;2603;48.918;8.980;2023-12-07T11:48:33;26.80;;;9.70;;
5167;SDS011;2603;48.918;8.980;2023-12-07T11:51:02;17.60;;;9.00;;
5167;SDS011;2603;48.918;8.980;2023-12-07T11:53:30;14.40;;;8.70;;
5167;SDS011;2603;48.918;8.980;2023-12-07T11:55:58;17.00;;;8.43;;
5167;SDS011;2603;48.918;8.980;2023-12-07T11:58:25;18.63;;;9.10;;
5167;SDS011;2603;48.918;8.980;2023-12-07T12:00:52;17.17;;;7.97;;
5167;SDS011;2603;48.918;8.980;2023-12-07T12:03:20;14.40;;;8.57;;
5167;SDS011;2603;48.918;8.980;2023-12-07T12:05:47;27.80;;;8.83;;
5167;SDS011;2603;48.918;8.980;2023-12-07T12:08:15;20.57;;;7.77;;
5167;SDS011;2603;48.918;8.980;2023-12-07T12:10:42;16.03;;;7.73;;
5167;SDS011;2603;48.918;8.980;2023-12-07T12:13:09;12.47;;;6.53;;
5167;SDS011;2603;48.918;8.980;2023-12-07T12:15:36;12.40;;;6.47;;
5167;SDS011;2603;48.918;8.980;2023-12-07T12:18:03;16.40;;;6.70;;
5167;SDS011;2603;48.918;8.980;2023-12-07T12:20:31;21.53;;;7.80;;
5167;SDS011;2603;48.918;8.980;2023-12-07T12:22:58;11.77;;;6.30;;
5167;SDS011;2603;48.918;8.980;2023-12-07T12:25:26;11.87;;;6.87;;
5167;SDS011;2603;48.918;8.980;2023-12-07T12:27:55;13.17;;;6.50;;
5167;SDS011;2603;48.918;8.980;2023-12-07T12:30:22;21.93;;;7.13;;
5167;SDS011;2603;48.918;8.980;2023-12-07T12:32:49;25.97;;;5.60;;
5167;SDS011;2603;48.918;8.980;2023-12-07T12:35:16;13.07;;;6.40;;
5167;SDS011;2603;48.918;8.980;2023-12-07T12:37:44;11.80;;;6.20;;
5167;SDS011;2603;48.918;8.980;2023-12-07T12:40:11;14.63;;;6.87;;
5167;SDS011;2603;48.918;8.980;2023-12-07T12:42:42;11.50;;;5.67;;
5167;SDS011;2603;48.918;8.980;2023-12-07T12:45:09;11.50;;;5.47;;
5167;SDS011;2603;48.918;8.980;2023-12-07T12:47:37;10.23;;;4.90;;
5167;SDS011;2603;48.918;8.980;2023-12-07T12:50:04;11.43;;;6.30;;
5167;SDS011;2603;48.918;8.980;2023-12-07T12:52:32;12.30;;;5.33;;
5167;SDS011;2603;48.918;8.980;2023-12-07T12:54:58;12.57;;;5.40;;
5167;SDS011;2603;48.918;8.980;2023-12-07T12:57:25;14.80;;;6.47;;
5167;SDS011;2603;48.918;8.980;2023-12-07T12:59:54;9.10;;;4.57;;
5167;SDS011;2603;48.918;8.980;2023-12-07T13:02:22;10.73;;;5.33;;
5167;SDS011;2603;48.918;8.980;2023-12-07T13:04:48;8.90;;;4.73;;
5167;SDS011;2603;48.918;8.980;2023-12-07T13:07:15;11.33;;;4.80;;
5167;SDS011;2603;48.918;8.980;2023-12-07T13:09:41;5.43;;;2.80;;
5167;SDS011;2603;48.918;8.980;2023-12-07T13:12:09;11.17;;;3.93;;
5167;SDS011;2603;48.918;8.980;2023-12-07T13:14:35;12.27;;;5.10;;
5167;SDS011;2603;48.918;8.980;2023-12-07T13:17:05;8.60;;;4.90;;
5167;SDS011;2603;48.918;8.980;2023-12-07T13:19:32;8.80;;;4.80;;
5167;SDS011;2603;48.918;8.980;2023-12-07T13:21:59;5.60;;;3.30;;
5167;SDS011;2603;48.918;8.980;2023-12-07T13:24:25;6.20;;;3.97;;
5167;SDS011;2603;48.918;8.980;2023-12-07T13:26:52;10.73;;;4.10;;
5167;SDS011;2603;48.918;8.980;2023-12-07T13:29:19;8.93;;;3.83;;
5167;SDS011;2603;48.918;8.980;2023-12-07T13:31:45;20.93;;;4.60;;
5167;SDS011;2603;48.918;8.980;2023-12-07T13:34:13;8.87;;;4.03;;
5167;SDS011;2603;48.918;8.980;2023-12-07T13:36:40;13.03;;;5.23;;
5167;SDS011;2603;48.918;8.980;2023-12-07T13:39:06;8.37;;;4.07;;
5167;SDS011;2603;48.918;8.980;2023-12-07T13:41:34;14.30;;;4.93;;
5167;SDS011;2603;48.918;8.980;2023-12-07T13:44:00;15.47;;;4.30;;
5167;SDS011;2603;48.918;8.980;2023-12-07T13:46:27;10.30;;;4.83;;
5167;SDS011;2603;48.918;8.980;2023-12-07T13:48:54;12.90;;;5.10;;
5167;SDS011;2603;48.918;8.980;2023-12-07T13:51:22;14.27;;;4.30;;
5167;SDS011;2603;48.918;8.980;2023-12-07T13:53:49;12.93;;;4.17;;
5167;SDS011;2603;48.918;8.980;2023-12-07T13:56:20;5.83;;;3.37;;
5167;SDS011;2603;48.918;8.980;2023-12-07T13:58:48;12.03;;;3.30;;
5167;SDS011;2603;48.918;8.980;2023-12-07T14:01:15;5.43;;;2.70;;
5167;SDS011;2603;48.918;8.980;2023-12-07T14:03:42;10.67;;;4.40;;
5167;SDS011;2603;48.918;8.980;2023-12-07T14:06:08;7.33;;;3.77;;
5167;SDS011;2603;48.918;8.980;2023-12-07T14:08:36;5.40;;;3.50;;
5167;SDS011;2603;48.918;8.980;2023-12-07T14:11:03;7.90;;;3.47;;
5167;SDS011;2603;48.918;8.980;2023-12-07T14:13:30;9.20;;;4.30;;
5167;SDS011;2603;48.918;8.980;2023-12-07T14:15:56;7.07;;;3.60;;
5167;SDS011;2603;48.918;8.980;2023-12-07T14:18:23;9.57;;;4.00;;
5167;SDS011;2603;48.918;8.980;2023-12-07T14:20:50;8.40;;;3.20;;
5167;SDS011;2603;48.918;8.980;2023-12-07T14:23:16;6.90;;;3.87;;
5167;SDS011;2603;48.918;8.980;2023-12-07T14:25:45;6.40;;;3.30;;
5167;SDS011;2603;48.918;8.980;2023-12-07T14:28:13;5.37;;;2.90;;
5167;SDS011;2603;48.918;8.980;2023-12-07T14:30:40;10.23;;;3.60;;
5167;SDS011;2603;48.918;8.980;2023-12-07T14:33:06;5.97;;;3.20;;
5167;SDS011;2603;48.918;8.980;2023-12-07T14:35:33;7.10;;;3.40;;
5167;SDS011;2603;48.918;8.980;2023-12-07T14:38:01;5.80;;;3.40;;
5167;SDS011;2603;48.918;8.980;2023-12-07T14:40:28;7.70;;;4.03;;
5167;SDS011;2603;48.918;8.980;2023-12-07T14:42:56;8.30;;;4.27;;
5167;SDS011;2603;48.918;8.980;2023-12-07T14:45:22;8.80;;;3.57;;
5167;SDS011;2603;48.918;8.980;2023-12-07T14:47:49;9.47;;;3.33;;
5167;SDS011;2603;48.918;8.980;2023-12-07T14:50:16;7.83;;;3.40;;
5167;SDS011;2603;48.918;8.980;2023-12-07T14:52:42;7.90;;;3.90;;
5167;SDS011;2603;48.918;8.980;2023-12-07T14:55:09;23.00;;;5.50;;
5167;SDS011;2603;48.918;8.980;2023-12-07T14:57:35;16.00;;;6.27;;
5167;SDS011;2603;48.918;8.980;2023-12-07T15:00:04;15.50;;;7.73;;